Time;durP1;ratioP1;P1;durP2;ratioP2;P2;SDS_P1;SDS_P2;PMS_P1;PMS_P2;Temp;Humidity;BMP_temperature;BMP_pressure;BME280_temperature;BME280_humidity;BME280_pressure;Samples;Min_cycle;Max_cycle;Signal;HPM_P1;HPM_P2
2023/04/26 00:02:04;;;;;;;2.92;1.50;;;6.50;67.10;;;;;;5093011;28;20044;-76
2023/04/26 00:04:30;;;;;;;7.35;1.83;;;6.50;67.20;;;;;;5092520;28;20052;-76
2023/04/26 00:06:56;;;;;;;7.35;2.15;;;6.50;67.20;;;;;;5092570;28;20047;-76
2023/04/26 00:09:22;;;;;;;5.65;1.80;;;6.50;67.30;;;;;;5074814;28;20058;-76
2023/04/26 00:11:48;;;;;;;5.22;2.35;;;6.50;67.30;;;;;;5092360;28;20044;-76
2023/04/26 00:14:13;;;;;;;6.85;1.90;;;6.50;67.30;;;;;;5092834;28;20048;-76
2023/04/26 00:16:39;;;;;;;5.35;2.05;;;6.50;67.20;;;;;;5064554;28;20032;-76
2023/04/26 00:19:05;;;;;;;5.00;2.70;;;6.50;67.20;;;;;;5055712;28;20098;-76
2023/04/26 00:21:30;;;;;;;4.70;1.88;;;6.50;67.10;;;;;;5073095;28;20082;-76
2023/04/26 00:23:56;;;;;;;3.67;1.70;;;6.50;67.10;;;;;;5075920;28;20130;-76
2023/04/26 00:26:22;;;;;;;9.40;1.80;;;6.50;67.20;;;;;;5092088;28;20050;-76
2023/04/26 00:28:48;;;;;;;3.60;1.90;;;6.50;67.30;;;;;;5092560;28;20050;-76
2023/04/26 00:31:14;;;;;;;3.40;1.40;;;6.50;67.40;;;;;;5092187;28;20459;-76
2023/04/26 00:33:40;;;;;;;4.82;1.90;;;6.50;67.60;;;;;;5075381;28;20484;-76
2023/04/26 00:36:06;;;;;;;5.07;1.80;;;6.50;67.60;;;;;;5058497;28;20032;-76
2023/04/26 00:38:32;;;;;;;4.45;1.48;;;6.50;67.70;;;;;;5075125;28;20085;-76
2023/04/26 00:40:57;;;;;;;6.22;2.00;;;6.50;67.70;;;;;;5091700;28;20119;-76
2023/04/26 00:43:23;;;;;;;6.18;1.85;;;6.50;67.70;;;;;;5075450;28;20063;-76
2023/04/26 00:45:49;;;;;;;4.53;1.55;;;6.50;67.80;;;;;;5074744;28;20507;-76
2023/04/26 00:48:15;;;;;;;4.88;1.40;;;6.50;67.90;;;;;;5092201;28;20032;-76
2023/04/26 00:50:41;;;;;;;2.90;1.42;;;6.50;67.90;;;;;;5091776;28;20481;-76
2023/04/26 00:53:07;;;;;;;4.55;1.75;;;6.50;68.00;;;;;;5075014;28;20035;-76
2023/04/26 00:55:34;;;;;;;7.72;1.60;;;6.50;68.30;;;;;;5058015;28;20040;-76
2023/04/26 00:58:00;;;;;;;6.18;1.58;;;6.50;68.40;;;;;;5090882;28;20031;-76
2023/04/26 01:00:26;;;;;;;3.00;1.50;;;6.50;68.40;;;;;;5058289;28;20598;-76
2023/04/26 01:02:52;;;;;;;3.15;1.15;;;6.50;68.50;;;;;;5074537;28;20488;-76
2023/04/26 01:05:18;;;;;;;2.88;1.25;;;6.50;68.40;;;;;;5091706;28;20188;-76
2023/04/26 01:07:44;;;;;;;2.47;1.38;;;6.60;68.50;;;;;;5073949;28;20038;-76
2023/04/26 01:10:10;;;;;;;5.47;1.73;;;6.60;68.50;;;;;;5091611;28;20075;-76
2023/04/26 01:12:37;;;;;;;4.70;1.95;;;6.60;68.40;;;;;;5074884;28;20078;-75
2023/04/26 01:15:04;;;;;;;4.22;1.38;;;6.60;68.40;;;;;;5091875;28;21624;-75
2023/04/26 01:17:30;;;;;;;6.80;1.30;;;6.60;68.30;;;;;;5058030;28;20044;-75
2023/04/26 01:19:56;;;;;;;5.60;1.42;;;6.60;68.70;;;;;;5091815;28;20044;-76
2023/04/26 01:22:22;;;;;;;3.10;1.30;;;6.60;68.20;;;;;;5074742;28;20036;-76
2023/04/26 01:24:53;;;;;;;3.13;1.05;;;6.60;68.10;;;;;;5074472;28;20040;-76
2023/04/26 01:27:19;;;;;;;2.30;1.10;;;6.60;68.10;;;;;;5091195;28;20039;-76
2023/04/26 01:29:45;;;;;;;2.58;1.15;;;6.60;68.00;;;;;;5091173;28;20109;-76
2023/04/26 01:32:11;;;;;;;5.10;1.20;;;6.70;68.00;;;;;;5091306;28;20055;-76
2023/04/26 01:34:36;;;;;;;3.10;1.73;;;6.60;67.90;;;;;;5091260;28;20550;-76
2023/04/26 01:37:02;;;;;;;5.28;1.95;;;6.60;67.90;;;;;;5091254;28;20051;-76
2023/04/26 01:39:28;;;;;;;4.50;1.40;;;6.60;67.90;;;;;;5091350;28;20467;-75
2023/04/26 01:41:57;;;;;;;3.20;1.50;;;6.60;67.80;;;;;;5091027;28;20105;-76
2023/04/26 01:44:23;;;;;;;3.50;1.05;;;6.60;67.70;;;;;;5090899;28;20058;-76
2023/04/26 01:46:48;;;;;;;3.63;1.23;;;6.60;67.70;;;;;;5073863;28;20048;-75
2023/04/26 01:49:14;;;;;;;3.80;1.45;;;6.60;67.70;;;;;;5091139;28;20047;-76
2023/04/26 01:51:40;;;;;;;3.75;1.60;;;6.60;67.60;;;;;;5074336;28;20051;-76
2023/04/26 01:54:06;;;;;;;5.80;1.35;;;6.60;67.60;;;;;;5091280;28;20032;-76
2023/04/26 01:56:32;;;;;;;4.93;1.40;;;6.60;67.60;;;;;;5057512;28;20480;-76
2023/04/26 01:58:58;;;;;;;3.75;1.33;;;6.60;67.60;;;;;;5091239;28;20047;-76
2023/04/26 02:01:24;;;;;;;2.85;1.13;;;6.60;67.60;;;;;;5074396;28;20579;-76
2023/04/26 02:03:50;;;;;;;4.85;1.30;;;6.60;67.50;;;;;;5057488;28;20044;-76
2023/04/26 02:06:15;;;;;;;4.10;1.33;;;6.50;67.50;;;;;;5052381;28;20127;-76
2023/04/26 02:08:41;;;;;;;3.08;1.10;;;6.50;67.50;;;;;;5070488;28;20086;-76
2023/04/26 02:11:07;;;;;;;3.50;1.30;;;6.50;67.50;;;;;;5072475;28;20053;-76
2023/04/26 02:13:33;;;;;;;3.17;1.27;;;6.50;67.50;;;;;;5074783;28;20072;-76
2023/04/26 02:15:58;;;;;;;3.25;1.15;;;6.50;67.50;;;;;;5078987;28;20040;-76
2023/04/26 02:18:24;;;;;;;2.58;1.48;;;6.40;67.50;;;;;;5095123;28;20461;-76
2023/04/26 02:20:50;;;;;;;2.95;1.30;;;6.40;67.50;;;;;;5094796;28;20047;-76
2023/04/26 02:23:16;;;;;;;3.95;1.42;;;6.40;67.50;;;;;;5094650;28;20040;-76
2023/04/26 02:25:45;;;;;;;3.13;1.17;;;6.40;67.60;;;;;;5095067;28;20062;-76
2023/04/26 02:28:10;;;;;;;5.13;1.45;;;6.40;67.70;;;;;;5077743;28;20036;-76
2023/04/26 02:30:36;;;;;;;4.43;1.60;;;6.40;67.80;;;;;;5094939;28;20047;-76
2023/04/26 02:33:02;;;;;;;5.40;1.50;;;6.30;67.70;;;;;;5095065;28;20121;-75
2023/04/26 02:35:28;;;;;;;3.88;1.40;;;6.30;67.80;;;;;;5096469;28;20485;-75
2023/04/26 02:37:54;;;;;;;5.88;1.42;;;6.30;67.80;;;;;;5081082;28;20036;-75
2023/04/26 02:40:19;;;;;;;3.92;1.20;;;6.30;67.90;;;;;;5096833;28;20047;-77
2023/04/26 02:42:46;;;;;;;4.10;1.30;;;6.30;68.00;;;;;;5077719;28;20036;-75
2023/04/26 02:45:12;;;;;;;3.90;1.17;;;6.20;67.90;;;;;;5094400;28;20083;-75
2023/04/26 02:47:38;;;;;;;4.03;1.42;;;6.20;68.00;;;;;;5094308;28;20043;-75
2023/04/26 02:50:06;;;;;;;2.67;1.25;;;6.20;68.00;;;;;;5077559;28;20118;-75
2023/04/26 02:52:32;;;;;;;2.78;1.25;;;6.20;68.10;;;;;;5077348;28;20040;-76
2023/04/26 02:55:04;;;;;;;3.20;1.20;;;6.20;68.10;;;;;;5077612;28;20131;-75
2023/04/26 02:57:31;;;;;;;4.20;1.25;;;6.20;68.20;;;;;;5077553;28;20105;-75
2023/04/26 02:59:57;;;;;;;3.42;1.35;;;6.20;68.30;;;;;;5077459;28;20038;-76
2023/04/26 03:02:23;;;;;;;3.78;1.73;;;6.10;68.30;;;;;;5094590;28;20456;-75
2023/04/26 03:04:49;;;;;;;3.58;1.50;;;6.10;68.40;;;;;;5060321;28;20493;-75
2023/04/26 03:07:15;;;;;;;2.85;1.25;;;6.10;68.50;;;;;;5094015;28;20051;-76
2023/04/26 03:09:41;;;;;;;5.20;1.83;;;6.10;68.60;;;;;;5077129;28;20051;-76
2023/04/26 03:12:08;;;;;;;3.35;1.30;;;6.10;68.70;;;;;;5093997;28;20048;-76
2023/04/26 03:14:34;;;;;;;2.63;1.30;;;6.10;68.70;;;;;;5094074;28;20094;-75
2023/04/26 03:17:00;;;;;;;5.45;1.45;;;6.10;68.80;;;;;;5094037;28;20530;-76
2023/04/26 03:19:29;;;;;;;4.22;1.92;;;6.10;68.80;;;;;;5094094;28;20046;-76
2023/04/26 03:21:55;;;;;;;8.52;1.58;;;6.10;68.90;;;;;;5077078;28;20137;-76
2023/04/26 03:24:21;;;;;;;3.50;1.35;;;6.10;68.90;;;;;;5076840;28;20560;-76
2023/04/26 03:26:47;;;;;;;3.53;1.70;;;6.10;68.90;;;;;;5077249;28;20669;-76
2023/04/26 03:29:13;;;;;;;3.30;1.50;;;6.10;69.00;;;;;;5093959;28;20118;-76
2023/04/26 03:31:39;;;;;;;4.68;1.63;;;6.10;69.00;;;;;;5093629;28;20177;-76
2023/04/26 03:34:06;;;;;;;4.60;1.48;;;6.10;69.10;;;;;;5076650;28;20114;-76
2023/04/26 03:36:32;;;;;;;4.03;1.83;;;6.10;69.10;;;;;;5093510;28;20048;-76
2023/04/26 03:38:58;;;;;;;3.33;1.30;;;6.10;69.20;;;;;;5093449;28;20047;-75
2023/04/26 03:41:24;;;;;;;5.22;1.60;;;6.10;69.20;;;;;;5076530;28;20051;-76
2023/04/26 03:43:49;;;;;;;5.13;1.80;;;6.10;69.30;;;;;;5093375;28;20044;-76
2023/04/26 03:46:15;;;;;;;4.75;1.73;;;6.10;69.30;;;;;;5093376;28;20072;-76
2023/04/26 03:48:41;;;;;;;3.45;1.70;;;6.10;69.40;;;;;;5060190;28;20101;-76
2023/04/26 03:51:07;;;;;;;5.38;1.40;;;6.10;69.40;;;;;;5075958;28;20426;-76
2023/04/26 03:53:32;;;;;;;3.38;1.33;;;6.10;69.30;;;;;;5075657;28;20039;-76
2023/04/26 03:55:58;;;;;;;4.85;1.70;;;6.10;69.40;;;;;;5076230;28;20119;-75
2023/04/26 03:58:25;;;;;;;5.15;1.70;;;6.10;69.40;;;;;;5076417;28;20036;-76
2023/04/26 04:00:51;;;;;;;4.45;1.70;;;6.10;69.30;;;;;;5059478;28;20047;-76
2023/04/26 04:03:16;;;;;;;3.83;1.58;;;6.10;69.30;;;;;;5076233;28;20394;-76
2023/04/26 04:05:43;;;;;;;2.28;1.25;;;6.10;69.30;;;;;;5075922;28;20044;-76
2023/04/26 04:08:08;;;;;;;3.10;1.33;;;6.10;69.30;;;;;;5092890;28;20040;-76
2023/04/26 04:10:35;;;;;;;2.78;1.35;;;6.10;69.30;;;;;;5076034;28;20508;-76
2023/04/26 04:13:01;;;;;;;4.22;1.45;;;6.10;69.20;;;;;;5092559;28;20043;-76
2023/04/26 04:15:27;;;;;;;2.67;1.42;;;6.10;69.20;;;;;;5076002;28;20042;-76
2023/04/26 04:17:52;;;;;;;4.38;2.08;;;6.10;69.10;;;;;;5075891;28;20047;-76
2023/04/26 04:20:20;;;;;;;4.22;1.70;;;6.10;69.10;;;;;;5092966;28;20110;-76
2023/04/26 04:22:46;;;;;;;8.05;2.13;;;6.10;69.10;;;;;;5092564;28;20038;-76
2023/04/26 04:25:12;;;;;;;4.50;1.80;;;6.00;69.00;;;;;;5075527;28;20044;-76
2023/04/26 04:27:41;;;;;;;4.60;1.95;;;6.00;69.00;;;;;;5076028;28;20046;-76
2023/04/26 04:30:07;;;;;;;4.70;1.70;;;6.00;69.00;;;;;;5092413;28;20039;-76
2023/04/26 04:32:38;;;;;;;3.78;1.98;;;6.00;69.00;;;;;;5093972;28;20040;-76
2023/04/26 04:35:05;;;;;;;3.88;1.77;;;6.00;69.00;;;;;;5095653;28;20331;-75
2023/04/26 04:37:32;;;;;;;2.63;1.50;;;6.00;69.00;;;;;;5075603;28;20040;-76
2023/04/26 04:39:58;;;;;;;3.80;1.50;;;6.00;69.10;;;;;;5092214;28;20122;-75
2023/04/26 04:42:26;;;;;;;3.97;1.70;;;5.90;69.10;;;;;;5092369;28;20044;-75
2023/04/26 04:44:52;;;;;;;5.10;1.60;;;5.90;69.20;;;;;;5075235;28;20491;-75
2023/04/26 04:47:17;;;;;;;5.55;2.10;;;5.90;69.20;;;;;;5075503;28;20446;-75
2023/04/26 04:49:43;;;;;;;6.30;2.25;;;5.90;69.40;;;;;;5092140;28;20052;-75
2023/04/26 04:52:09;;;;;;;4.40;2.40;;;5.90;69.70;;;;;;5091817;28;20040;-76
2023/04/26 04:54:35;;;;;;;6.10;2.10;;;5.90;70.10;;;;;;5092012;28;20134;-75
2023/04/26 04:57:02;;;;;;;5.43;2.45;;;5.90;70.70;;;;;;5091575;28;20447;-75
2023/04/26 04:59:28;;;;;;;3.20;1.60;;;6.00;71.20;;;;;;5053558;28;20100;-76
2023/04/26 05:01:54;;;;;;;3.05;1.55;;;6.10;70.90;;;;;;5092327;28;20127;-71
2023/04/26 05:04:20;;;;;;;3.05;1.50;;;6.20;70.60;;;;;;5074295;28;20044;-73
2023/04/26 05:06:46;;;;;;;3.20;1.55;;;6.20;70.30;;;;;;5090190;28;20044;-73
2023/04/26 05:09:12;;;;;;;4.30;2.08;;;6.30;70.10;;;;;;5091190;28;20044;-73
2023/04/26 05:11:37;;;;;;;5.10;2.20;;;6.30;70.00;;;;;;5074325;28;20546;-73
2023/04/26 05:14:03;;;;;;;3.10;2.10;;;6.30;70.00;;;;;;5074174;28;20036;-73
2023/04/26 05:16:29;;;;;;;3.67;1.80;;;6.40;70.10;;;;;;5053881;28;20048;-73
2023/04/26 05:18:54;;;;;;;7.20;2.30;;;6.40;70.20;;;;;;5066177;28;20043;-73
2023/04/26 05:21:21;;;;;;;4.47;2.05;;;6.40;70.30;;;;;;5074224;28;20523;-73
2023/04/26 05:23:46;;;;;;;6.28;1.83;;;6.40;70.40;;;;;;5090726;28;20035;-74
2023/04/26 05:26:14;;;;;;;3.03;1.80;;;6.40;70.60;;;;;;5090926;28;20170;-76
2023/04/26 05:28:40;;;;;;;3.50;2.00;;;6.40;70.70;;;;;;5091195;28;20469;-76
2023/04/26 05:31:07;;;;;;;5.13;2.33;;;6.40;70.80;;;;;;5090294;28;20044;-74
2023/04/26 05:33:33;;;;;;;3.88;1.80;;;6.40;70.90;;;;;;5090472;28;20040;-74
2023/04/26 05:35:58;;;;;;;4.75;2.72;;;6.40;71.00;;;;;;5074701;28;20185;-74
2023/04/26 05:38:24;;;;;;;4.60;2.63;;;6.50;71.10;;;;;;5095032;28;20484;-74
2023/04/26 05:40:50;;;;;;;4.10;2.05;;;6.50;71.40;;;;;;5074513;28;20136;-73
2023/04/26 05:43:16;;;;;;;3.47;2.20;;;6.50;71.60;;;;;;5090905;28;20067;-74
2023/04/26 05:45:52;;;;;;;2.97;1.98;;;6.50;71.70;;;;;;5056888;28;20044;-74
2023/04/26 05:48:21;;;;;;;4.15;2.50;;;6.50;71.90;;;;;;5073363;28;20043;-71
2023/04/26 05:50:47;;;;;;;6.60;2.83;;;6.50;72.10;;;;;;5091065;28;20040;-71
2023/04/26 05:53:13;;;;;;;8.07;2.25;;;6.60;72.20;;;;;;5074391;28;20119;-71
2023/04/26 05:55:40;;;;;;;4.40;2.15;;;6.60;72.20;;;;;;5091101;28;20127;-72
2023/04/26 05:58:06;;;;;;;5.63;2.00;;;6.60;72.30;;;;;;5073773;28;20046;-72
2023/04/26 06:00:32;;;;;;;4.90;2.55;;;6.70;72.30;;;;;;5091259;28;20040;-71
2023/04/26 06:02:58;;;;;;;6.70;2.45;;;6.70;72.20;;;;;;5090843;28;20117;-71
2023/04/26 06:05:24;;;;;;;4.85;2.05;;;6.70;71.90;;;;;;5074223;28;20052;-71
2023/04/26 06:07:50;;;;;;;6.55;2.75;;;6.80;71.70;;;;;;5090776;28;20067;-72
2023/04/26 06:10:16;;;;;;;6.32;2.00;;;6.90;72.00;;;;;;5091279;28;20040;-72
2023/04/26 06:12:42;;;;;;;4.95;1.85;;;7.00;72.80;;;;;;5090246;28;20400;-72
2023/04/26 06:15:09;;;;;;;5.55;2.00;;;7.20;73.40;;;;;;5090940;28;20043;-72
2023/04/26 06:17:35;;;;;;;5.00;1.75;;;7.60;73.90;;;;;;5090868;28;20082;-72
2023/04/26 06:20:01;;;;;;;4.32;2.00;;;8.10;73.50;;;;;;5057280;28;20067;-72
2023/04/26 06:22:26;;;;;;;4.15;1.65;;;8.60;73.10;;;;;;5090434;28;20036;-72
2023/04/26 06:24:52;;;;;;;7.85;2.72;;;9.00;71.50;;;;;;5090005;28;20036;-72
2023/04/26 06:27:18;;;;;;;5.13;1.55;;;9.30;70.00;;;;;;5090244;28;20078;-73
2023/04/26 06:29:44;;;;;;;5.10;1.70;;;9.50;68.30;;;;;;5073471;28;20048;-72
2023/04/26 06:32:10;;;;;;;2.30;1.13;;;9.70;67.70;;;;;;5089960;28;20583;-72
2023/04/26 06:34:36;;;;;;;4.07;1.40;;;9.80;67.00;;;;;;5089825;28;20049;-72
2023/04/26 06:37:06;;;;;;;4.65;1.40;;;9.90;66.60;;;;;;5090262;28;20378;-73
2023/04/26 06:39:31;;;;;;;5.88;1.75;;;10.00;65.40;;;;;;5090027;28;20040;-73
2023/04/26 06:41:57;;;;;;;6.20;1.45;;;10.10;65.10;;;;;;5090015;28;20040;-72
2023/04/26 06:44:23;;;;;;;2.45;1.10;;;10.30;64.70;;;;;;5073034;28;20060;-71
2023/04/26 06:46:52;;;;;;;4.60;1.60;;;10.40;63.40;;;;;;5072063;28;20051;-72
2023/04/26 06:49:18;;;;;;;2.90;1.30;;;10.50;62.60;;;;;;5091922;28;20064;-72
2023/04/26 06:51:43;;;;;;;5.65;1.95;;;10.70;61.70;;;;;;5094715;28;20055;-72
2023/04/26 06:54:10;;;;;;;2.88;1.40;;;10.90;61.80;;;;;;5073347;28;20156;-72
2023/04/26 06:56:36;;;;;;;3.83;1.25;;;11.20;61.40;;;;;;5074754;28;20086;-72
2023/04/26 06:59:05;;;;;;;7.03;1.90;;;11.50;60.60;;;;;;5076895;28;20032;-72
2023/04/26 07:01:34;;;;;;;4.53;1.45;;;11.80;59.90;;;;;;5093613;28;20040;-73
2023/04/26 07:04:06;;;;;;;7.43;1.98;;;12.00;59.10;;;;;;5067914;28;20106;-77
2023/04/26 07:06:32;;;;;;;3.72;1.60;;;12.30;58.30;;;;;;5094231;28;20052;-77
2023/04/26 07:08:59;;;;;;;5.47;1.20;;;12.60;57.20;;;;;;5077127;28;20442;-77
2023/04/26 07:11:25;;;;;;;3.25;1.20;;;12.80;56.70;;;;;;5077271;28;20040;-77
2023/04/26 07:13:51;;;;;;;3.72;1.50;;;13.00;56.10;;;;;;5093869;28;20043;-77
2023/04/26 07:16:17;;;;;;;4.53;1.20;;;13.10;55.50;;;;;;5094297;28;20039;-77
2023/04/26 07:18:43;;;;;;;4.40;1.30;;;13.20;55.10;;;;;;5093804;28;20432;-77
2023/04/26 07:21:09;;;;;;;4.75;1.63;;;13.30;54.70;;;;;;5094017;28;20147;-77
2023/04/26 07:23:35;;;;;;;5.43;1.55;;;13.50;54.80;;;;;;5093688;28;20043;-77
2023/04/26 07:26:03;;;;;;;2.97;0.90;;;13.60;54.00;;;;;;5060132;28;20039;-77
2023/04/26 07:28:32;;;;;;;5.95;1.65;;;13.60;53.50;;;;;;5093749;28;20075;-77
2023/04/26 07:31:00;;;;;;;6.35;1.80;;;13.80;53.10;;;;;;5077392;28;20036;-77
2023/04/26 07:33:26;;;;;;;6.82;2.30;;;13.80;52.20;;;;;;5076394;28;20168;-77
2023/04/26 07:35:58;;;;;;;7.43;2.10;;;13.90;51.50;;;;;;5076901;28;20036;-77
2023/04/26 07:38:24;;;;;;;7.32;1.95;;;13.80;50.50;;;;;;5076602;28;20488;-76
2023/04/26 07:40:50;;;;;;;4.93;1.85;;;13.80;50.40;;;;;;5093123;28;20093;-77
2023/04/26 07:43:17;;;;;;;5.50;1.10;;;13.90;50.10;;;;;;5093151;28;20048;-74
2023/04/26 07:45:43;;;;;;;7.68;2.03;;;13.90;48.80;;;;;;5076034;28;20043;-73
2023/04/26 07:48:09;;;;;;;4.30;1.75;;;13.90;48.20;;;;;;5092923;28;20043;-73
2023/04/26 07:50:35;;;;;;;5.88;1.90;;;13.90;48.30;;;;;;5092610;28;20036;-73
2023/04/26 07:53:01;;;;;;;5.50;1.75;;;13.90;48.40;;;;;;5092153;28;20040;-73
2023/04/26 07:55:27;;;;;;;5.88;1.70;;;13.90;47.80;;;;;;5093576;28;20047;-73
2023/04/26 07:57:52;;;;;;;5.43;1.70;;;13.90;47.10;;;;;;5077404;28;20126;-72
2023/04/26 08:00:18;;;;;;;3.78;1.30;;;13.80;47.60;;;;;;5076696;28;20204;-73
2023/04/26 08:02:45;;;;;;;4.43;1.55;;;13.70;47.80;;;;;;5092945;28;20427;-73
2023/04/26 08:05:12;;;;;;;5.28;1.17;;;13.70;48.40;;;;;;5092183;28;20165;-73
2023/04/26 08:07:38;;;;;;;7.03;1.60;;;13.60;48.70;;;;;;5068034;28;20126;-72
2023/04/26 08:10:04;;;;;;;5.80;1.67;;;13.60;48.60;;;;;;5082862;28;20047;-72
2023/04/26 08:12:31;;;;;;;6.20;2.00;;;13.60;48.20;;;;;;5092298;28;20044;-72
2023/04/26 08:15:00;;;;;;;4.53;1.60;;;13.50;47.50;;;;;;5075484;28;20097;-72
2023/04/26 08:17:25;;;;;;;5.32;1.45;;;13.40;48.10;;;;;;5092580;28;20036;-72
2023/04/26 08:19:51;;;;;;;7.22;1.73;;;13.20;48.50;;;;;;5075314;28;20563;-72
2023/04/26 08:22:18;;;;;;;6.45;1.58;;;13.10;48.80;;;;;;5092325;28;20039;-72
2023/04/26 08:24:54;;;;;;;4.55;1.40;;;13.00;48.90;;;;;;5075273;28;20044;-72
2023/04/26 08:27:21;;;;;;;7.10;1.60;;;13.00;49.40;;;;;;5092369;28;20561;-72
2023/04/26 08:29:46;;;;;;;5.57;1.30;;;12.80;49.70;;;;;;5092202;28;20389;-72
2023/04/26 08:32:12;;;;;;;5.13;1.50;;;12.70;49.50;;;;;;5092194;28;20040;-72
2023/04/26 08:34:38;;;;;;;5.80;1.58;;;12.60;50.10;;;;;;5091780;28;20378;-72
2023/04/26 08:37:06;;;;;;;7.43;1.52;;;12.60;50.40;;;;;;5091905;28;20451;-72
2023/04/26 08:39:32;;;;;;;6.47;1.30;;;12.60;50.70;;;;;;5091968;28;20036;-73
2023/04/26 08:42:05;;;;;;;4.53;1.50;;;12.70;50.60;;;;;;5091689;28;20040;-73
2023/04/26 08:44:34;;;;;;;7.28;1.48;;;12.70;50.00;;;;;;5091403;28;20062;-72
2023/04/26 08:47:02;;;;;;;2.97;1.10;;;12.60;49.60;;;;;;5091664;28;20087;-73
2023/04/26 08:49:43;;;;;;;3.97;1.50;;;12.50;50.50;;;;;;5091554;28;20409;-73
2023/04/26 08:52:11;;;;;;;5.07;1.58;;;12.60;51.50;;;;;;5091584;28;20040;-72
2023/04/26 08:54:38;;;;;;;4.22;1.20;;;12.60;51.40;;;;;;5091005;28;20480;-73
2023/04/26 08:57:06;;;;;;;3.70;1.40;;;12.60;50.40;;;;;;5091450;28;20063;-73
2023/04/26 08:59:36;;;;;;;4.00;1.27;;;12.70;50.60;;;;;;5091444;28;20032;-73
2023/04/26 09:02:08;;;;;;;5.45;1.92;;;12.80;50.40;;;;;;5074514;28;20040;-73
2023/04/26 09:04:34;;;;;;;3.60;1.23;;;12.90;50.60;;;;;;5091188;28;20043;-73
2023/04/26 09:07:02;;;;;;;5.55;1.38;;;13.00;50.70;;;;;;5074246;28;20487;-73
2023/04/26 09:09:34;;;;;;;6.32;1.38;;;13.10;50.00;;;;;;5091319;28;20047;-73
2023/04/26 09:12:02;;;;;;;4.43;1.40;;;13.20;49.90;;;;;;5090785;28;20036;-73
2023/04/26 09:14:28;;;;;;;4.68;1.52;;;13.30;49.80;;;;;;5046385;28;20123;-73
2023/04/26 09:16:54;;;;;;;4.18;1.40;;;13.40;49.00;;;;;;5053950;28;20040;-71
2023/04/26 09:19:41;;;;;;;3.35;1.48;;;13.50;48.80;;;;;;5071068;28;20549;-72
2023/04/26 09:22:08;;;;;;;2.67;0.98;;;13.60;48.00;;;;;;5055084;28;20052;-71
2023/04/26 09:24:53;;;;;;;6.22;1.77;;;13.60;47.40;;;;;;5083601;28;20067;-72
2023/04/26 09:27:19;;;;;;;3.50;1.35;;;13.70;45.20;;;;;;5074457;28;20544;-72
2023/04/26 09:30:11;;;;;;;6.18;1.95;;;13.70;45.20;;;;;;5074621;28;20040;-70
2023/04/26 09:32:55;;;;;;;4.57;1.35;;;13.80;45.70;;;;;;5065060;28;20404;-71
2023/04/26 09:35:38;;;;;;;6.97;1.52;;;13.70;46.00;;;;;;5091098;28;20514;-71
2023/04/26 09:38:09;;;;;;;6.55;1.58;;;13.60;45.50;;;;;;5091651;28;20032;-70
2023/04/26 09:40:40;;;;;;;7.15;1.58;;;13.50;46.10;;;;;;5091542;28;20035;-71
2023/04/26 09:43:06;;;;;;;6.50;1.67;;;13.40;46.60;;;;;;5091155;28;20044;-72
2023/04/26 09:45:42;;;;;;;4.82;1.48;;;13.30;47.10;;;;;;5090695;28;20044;-72
2023/04/26 09:48:29;;;;;;;5.07;1.75;;;13.20;47.90;;;;;;5091220;28;20040;-71
2023/04/26 09:51:07;;;;;;;4.25;1.27;;;13.00;46.60;;;;;;5091106;28;20571;-72
2023/04/26 09:53:39;;;;;;;5.22;1.75;;;12.90;47.00;;;;;;5090980;28;20040;-72
2023/04/26 09:56:10;;;;;;;7.22;2.97;;;12.80;47.70;;;;;;5091421;28;20501;-73
2023/04/26 09:58:38;;;;;;;7.68;2.15;;;12.80;48.10;;;;;;5091199;28;20484;-73
2023/04/26 10:01:07;;;;;;;6.60;2.38;;;12.70;47.90;;;;;;5090237;28;20040;-72
2023/04/26 10:03:36;;;;;;;8.00;2.17;;;12.70;47.70;;;;;;5074555;28;20102;-73
2023/04/26 10:06:03;;;;;;;6.57;2.70;;;12.60;47.20;;;;;;5090766;28;20036;-72
2023/04/26 10:08:31;;;;;;;5.85;2.17;;;12.50;47.90;;;;;;5090899;28;20048;-72
2023/04/26 10:10:57;;;;;;;4.38;1.90;;;12.40;48.10;;;;;;5090917;28;20051;-72
2023/04/26 10:13:23;;;;;;;5.18;1.83;;;12.40;48.30;;;;;;5053971;28;20044;-72
2023/04/26 10:15:51;;;;;;;3.83;1.35;;;12.40;49.50;;;;;;5054750;28;20061;-76
2023/04/26 10:18:16;;;;;;;5.75;2.10;;;12.40;50.70;;;;;;5090691;28;20097;-76
2023/04/26 10:20:47;;;;;;;6.28;2.25;;;12.40;51.60;;;;;;5074821;28;20033;-75
2023/04/26 10:23:19;;;;;;;4.50;1.60;;;12.30;52.00;;;;;;5091148;28;20044;-76
2023/04/26 10:25:46;;;;;;;8.18;1.85;;;12.30;52.20;;;;;;5091538;28;20051;-76
2023/04/26 10:28:11;;;;;;;3.97;1.65;;;12.30;52.30;;;;;;5091229;28;20071;-76
2023/04/26 10:30:54;;;;;;;6.28;2.20;;;12.20;52.20;;;;;;5091088;28;20068;-76
2023/04/26 10:33:22;;;;;;;4.57;1.63;;;12.20;51.50;;;;;;5094925;28;20097;-76
2023/04/26 10:36:06;;;;;;;4.85;1.90;;;12.20;52.70;;;;;;5095275;28;20047;-76
2023/04/26 10:38:33;;;;;;;3.97;1.90;;;12.20;51.70;;;;;;5095379;28;20199;-76
2023/04/26 10:41:29;;;;;;;6.65;2.47;;;12.30;52.20;;;;;;5095109;28;20615;-76
2023/04/26 10:43:54;;;;;;;4.28;1.80;;;12.40;51.20;;;;;;5089849;28;20056;-76
2023/04/26 10:46:35;;;;;;;4.53;1.60;;;12.30;50.30;;;;;;5095121;28;20051;-76
2023/04/26 10:49:24;;;;;;;4.50;1.95;;;12.40;51.00;;;;;;5095143;28;20075;-76
2023/04/26 10:52:12;;;;;;;5.43;1.58;;;12.50;50.60;;;;;;5094901;28;20044;-76
2023/04/26 10:54:51;;;;;;;4.75;1.40;;;12.60;50.00;;;;;;5095647;28;20566;-76
2023/04/26 10:57:17;;;;;;;3.00;1.52;;;12.70;50.80;;;;;;5079698;28;20127;-76
2023/04/26 11:00:13;;;;;;;5.03;1.98;;;12.80;50.20;;;;;;5096731;28;20496;-76
2023/04/26 11:02:51;;;;;;;4.55;1.27;;;12.90;49.40;;;;;;5079071;28;20392;-76
2023/04/26 11:05:31;;;;;;;4.15;1.42;;;13.00;49.40;;;;;;5095417;28;20044;-76
2023/04/26 11:08:13;;;;;;;5.22;1.65;;;13.20;50.40;;;;;;5094671;28;20419;-76
2023/04/26 11:10:39;;;;;;;5.40;1.52;;;13.40;48.90;;;;;;5079155;28;20122;-76
2023/04/26 11:13:05;;;;;;;6.15;1.65;;;13.60;49.00;;;;;;5094868;28;20102;-76
2023/04/26 11:15:32;;;;;;;3.17;1.40;;;13.70;48.00;;;;;;5077823;28;20040;-76
2023/04/26 11:18:00;;;;;;;4.13;1.70;;;13.70;47.90;;;;;;5095447;28;20047;-76
2023/04/26 11:20:33;;;;;;;5.53;2.15;;;13.80;47.00;;;;;;5095366;28;20067;-76
2023/04/26 11:22:59;;;;;;;3.70;1.48;;;13.80;45.60;;;;;;5094428;28;20077;-75
2023/04/26 11:25:28;;;;;;;7.90;2.20;;;13.90;45.70;;;;;;5094709;28;20126;-76
2023/04/26 11:28:01;;;;;;;6.07;1.85;;;13.90;45.20;;;;;;5077469;28;20039;-76
2023/04/26 11:30:29;;;;;;;5.55;1.98;;;13.90;45.60;;;;;;5077773;28;20134;-75
2023/04/26 11:32:55;;;;;;;6.70;2.28;;;13.90;45.50;;;;;;5093657;28;20039;-76
2023/04/26 11:35:23;;;;;;;4.15;1.58;;;13.90;45.20;;;;;;5094426;28;20028;-76
2023/04/26 11:37:51;;;;;;;4.75;2.03;;;13.90;45.20;;;;;;5093449;28;20086;-75
2023/04/26 11:40:17;;;;;;;5.72;1.60;;;13.80;45.40;;;;;;5093798;28;20040;-75
2023/04/26 11:42:46;;;;;;;7.55;2.28;;;13.80;44.40;;;;;;5092707;28;20043;-78
2023/04/26 11:45:15;;;;;;;5.43;1.75;;;13.80;44.60;;;;;;5075921;28;20059;-76
2023/04/26 11:47:41;;;;;;;3.88;1.60;;;13.70;44.90;;;;;;5093074;28;20075;-78
2023/04/26 11:50:08;;;;;;;6.18;1.60;;;13.60;45.50;;;;;;5076592;28;20044;-78
2023/04/26 11:52:35;;;;;;;8.00;1.60;;;13.50;46.00;;;;;;5069102;28;20044;-78
2023/04/26 11:55:06;;;;;;;6.30;1.95;;;13.40;46.10;;;;;;5086799;28;20500;-75
2023/04/26 11:57:33;;;;;;;5.80;1.50;;;13.30;45.60;;;;;;5070447;28;20172;-75
2023/04/26 12:00:15;;;;;;;6.90;1.85;;;13.20;45.40;;;;;;5087016;28;20097;-75
2023/04/26 12:02:48;;;;;;;2.83;1.65;;;13.10;45.90;;;;;;5086275;28;20078;-76
2023/04/26 12:05:40;;;;;;;6.78;1.73;;;13.00;46.50;;;;;;5069690;28;20036;-76
2023/04/26 12:08:09;;;;;;;6.07;1.85;;;13.00;47.60;;;;;;5083082;28;20051;-75
2023/04/26 12:10:38;;;;;;;5.55;1.67;;;12.90;47.50;;;;;;5087037;28;20385;-76
2023/04/26 12:13:03;;;;;;;4.90;1.65;;;12.90;48.10;;;;;;5069647;28;20380;-75
2023/04/26 12:15:31;;;;;;;7.78;2.03;;;12.80;48.40;;;;;;5086855;28;20032;-75
2023/04/26 12:18:09;;;;;;;4.60;2.30;;;12.80;49.30;;;;;;5086569;28;20039;-75
2023/04/26 12:20:36;;;;;;;6.95;2.72;;;12.80;49.30;;;;;;5086396;28;20094;-75
2023/04/26 12:23:12;;;;;;;6.72;2.50;;;12.70;49.30;;;;;;5052955;28;20058;-75
2023/04/26 12:25:40;;;;;;;4.43;2.10;;;12.70;49.90;;;;;;5086129;28;20043;-75
2023/04/26 12:28:10;;;;;;;8.68;2.90;;;12.70;49.70;;;;;;5069579;28;20385;-75
2023/04/26 12:30:38;;;;;;;3.92;1.85;;;12.70;50.20;;;;;;5086487;28;20039;-75
2023/04/26 12:33:05;;;;;;;8.52;3.58;;;12.70;49.50;;;;;;5085564;28;20115;-75
2023/04/26 12:35:31;;;;;;;6.20;2.72;;;12.70;49.30;;;;;;5069243;28;20036;-75
2023/04/26 12:37:59;;;;;;;5.63;2.60;;;12.80;49.70;;;;;;5086075;28;20124;-74
2023/04/26 12:40:25;;;;;;;8.10;3.35;;;12.70;49.20;;;;;;5087123;28;20361;-75
2023/04/26 12:42:52;;;;;;;6.35;3.20;;;12.70;48.90;;;;;;5075130;28;20075;-75
2023/04/26 12:45:18;;;;;;;9.60;3.45;;;12.70;48.60;;;;;;5074262;28;20051;-77
2023/04/26 12:47:47;;;;;;;6.18;3.08;;;12.70;48.60;;;;;;5091965;28;20044;-76
2023/04/26 12:50:14;;;;;;;7.93;2.90;;;12.70;48.80;;;;;;5074528;28;20047;-75
2023/04/26 12:52:42;;;;;;;8.00;2.38;;;12.70;48.80;;;;;;5074815;28;20058;-75
2023/04/26 12:55:11;;;;;;;7.22;2.17;;;12.70;48.30;;;;;;5074889;28;20123;-76
2023/04/26 12:57:38;;;;;;;5.47;2.15;;;12.70;48.10;;;;;;5091606;28;20514;-72